DFALL EDDW-EDDH
Flight info
| Callsign | DFALL |
|---|---|
| Flight time | N/A |
| Altitude | |
| Route | |
| Aircraft | C208 |
Departure
| Time | 2026-04-28 19:40 |
|---|---|
| Airport | Bremen Airport (EDDW) |
Arrival
| Time | N/A |
|---|---|
| Airport | Hamburg Helmut Schmidt Airport (EDDH) |
| Time | Latitude | Longitude | Altitude | Speed | Heading |
|---|---|---|---|---|---|
| 2026-04-28 19:29 | 53.04884 | 8.78388 | 17 ft | 0 kts | 229° |
| 2026-04-28 19:31 | 53.04878 | 8.78375 | 17 ft | 4 kts | 240° |
| 2026-04-28 19:31 | 53.04922 | 8.78277 | 17 ft | 15 kts | 327° |
| 2026-04-28 19:32 | 53.05021 | 8.78210 | 17 ft | 19 kts | 319° |
| 2026-04-28 19:32 | 53.05113 | 8.78074 | 17 ft | 13 kts | 318° |
| 2026-04-28 19:32 | 53.05150 | 8.77958 | 17 ft | 15 kts | 236° |
| 2026-04-28 19:32 | 53.05065 | 8.77796 | 17 ft | 22 kts | 226° |
| 2026-04-28 19:33 | 53.04966 | 8.77620 | 17 ft | 18 kts | 229° |
| 2026-04-28 19:33 | 53.04891 | 8.77515 | 17 ft | 11 kts | 210° |
| 2026-04-28 19:33 | 53.04864 | 8.77490 | 17 ft | 0 kts | 166° |
| 2026-04-28 19:36 | 53.04852 | 8.77485 | 17 ft | 6 kts | 199° |
| 2026-04-28 19:36 | 53.04796 | 8.77460 | 17 ft | 6 kts | 190° |
| 2026-04-28 19:36 | 53.04771 | 8.77455 | 18 ft | 1 kts | 184° |
| 2026-04-28 19:37 | 53.04721 | 8.77453 | 18 ft | 13 kts | 175° |
| 2026-04-28 19:37 | 53.04667 | 8.77515 | 18 ft | 13 kts | 114° |
| 2026-04-28 19:37 | 53.04662 | 8.77561 | 18 ft | 0 kts | 88° |
| 2026-04-28 19:38 | 53.04662 | 8.77580 | 18 ft | 5 kts | 92° |
| 2026-04-28 19:38 | 53.04664 | 8.77726 | 18 ft | 23 kts | 89° |
| 2026-04-28 19:38 | 53.04673 | 8.78129 | 18 ft | 45 kts | 87° |
| 2026-04-28 19:39 | 53.04691 | 8.78765 | 19 ft | 64 kts | 90° |
| 2026-04-28 19:39 | 53.04681 | 8.79562 | 58 ft | 72 kts | 90° |
| 2026-04-28 19:39 | 53.04684 | 8.80382 | 136 ft | 70 kts | 85° |
| 2026-04-28 19:39 | 53.04672 | 8.81162 | 241 ft | 67 kts | 91° |
| 2026-04-28 19:40 | 53.04606 | 8.81955 | 318 ft | 73 kts | 96° |
| 2026-04-28 19:40 | 53.04533 | 8.82845 | 560 ft | 81 kts | 83° |
| 2026-04-28 19:40 | 53.04686 | 8.83812 | 702 ft | 99 kts | 65° |
| 2026-04-28 19:40 | 53.05035 | 8.84925 | 878 ft | 114 kts | 60° |
| 2026-04-28 19:41 | 53.05441 | 8.86099 | 1127 ft | 121 kts | 59° |
| 2026-04-28 19:41 | 53.05867 | 8.87293 | 1391 ft | 121 kts | 60° |
| 2026-04-28 19:41 | 53.06314 | 8.88608 | 1306 ft | 140 kts | 61° |
| 2026-04-28 19:41 | 53.06825 | 8.90006 | 1403 ft | 142 kts | 57° |
| 2026-04-28 19:42 | 53.07366 | 8.91349 | 1496 ft | 137 kts | 56° |
| 2026-04-28 19:42 | 53.07889 | 8.92628 | 1623 ft | 133 kts | 56° |
| 2026-04-28 19:42 | 53.08411 | 8.93927 | 1675 ft | 135 kts | 57° |
| 2026-04-28 19:42 | 53.08751 | 8.94797 | 1722 ft | 136 kts | 57° |
| 2026-04-28 19:43 | 53.09391 | 8.96617 | 1754 ft | 138 kts | 62° |
| 2026-04-28 19:43 | 53.09797 | 8.98083 | 1749 ft | 140 kts | 67° |
| 2026-04-28 19:43 | 53.10145 | 8.99586 | 1821 ft | 138 kts | 68° |
| 2026-04-28 19:43 | 53.10495 | 9.01080 | 1858 ft | 139 kts | 67° |
| 2026-04-28 19:44 | 53.10853 | 9.02580 | 1902 ft | 139 kts | 66° |
| 2026-04-28 19:44 | 53.11248 | 9.04029 | 1937 ft | 139 kts | 63° |
| 2026-04-28 19:44 | 53.11662 | 9.05508 | 1928 ft | 141 kts | 66° |
| 2026-04-28 19:44 | 53.12062 | 9.06980 | 1996 ft | 139 kts | 63° |
| 2026-04-28 19:45 | 53.12497 | 9.08407 | 2058 ft | 138 kts | 63° |
| 2026-04-28 19:45 | 53.12893 | 9.09831 | 2190 ft | 133 kts | 65° |
| 2026-04-28 19:45 | 53.13259 | 9.11225 | 2300 ft | 131 kts | 65° |
| 2026-04-28 19:45 | 53.13548 | 9.12677 | 2342 ft | 134 kts | 74° |
| 2026-04-28 19:46 | 53.13714 | 9.14227 | 2375 ft | 137 kts | 81° |
| 2026-04-28 19:46 | 53.13766 | 9.15864 | 2297 ft | 146 kts | 86° |
| 2026-04-28 19:46 | 53.13730 | 9.17588 | 2220 ft | 151 kts | 89° |
| 2026-04-28 19:46 | 53.13653 | 9.19348 | 2125 ft | 154 kts | 90° |
| 2026-04-28 19:47 | 53.13597 | 9.21115 | 2098 ft | 151 kts | 89° |
| 2026-04-28 19:47 | 53.13538 | 9.22817 | 2202 ft | 145 kts | 89° |
| 2026-04-28 19:47 | 53.13486 | 9.24512 | 2141 ft | 150 kts | 90° |
| 2026-04-28 19:47 | 53.13308 | 9.26254 | 2045 ft | 156 kts | 99° |
| 2026-04-28 19:48 | 53.12989 | 9.27887 | 1736 ft | 144 kts | 105° |
| 2026-04-28 19:48 | 53.13040 | 9.29400 | 1516 ft | 130 kts | 61° |
| 2026-04-28 19:48 | 53.13602 | 9.30498 | 1408 ft | 118 kts | 47° |
| 2026-04-28 19:48 | 53.14060 | 9.31594 | 1329 ft | 113 kts | 55° |
| 2026-04-28 19:49 | 53.14509 | 9.32716 | 1198 ft | 119 kts | 56° |
| 2026-04-28 19:49 | 53.14878 | 9.33903 | 1166 ft | 111 kts | 82° |
| 2026-04-28 19:49 | 53.14442 | 9.34861 | 1022 ft | 121 kts | 153° |
| 2026-04-28 19:49 | 53.13672 | 9.34450 | 856 ft | 119 kts | 236° |
| 2026-04-28 19:50 | 53.12869 | 9.32996 | 497 ft | 84 kts | 162° |
| 2026-04-28 19:50 | 53.12683 | 9.33635 | 303 ft | 69 kts | 69° |
| 2026-04-28 19:50 | 53.12791 | 9.34450 | 115 ft | 68 kts | 75° |
| 2026-04-28 19:51 | 53.12861 | 9.35082 | 105 ft | 40 kts | 79° |
| 2026-04-28 19:51 | 53.12894 | 9.35368 | 105 ft | 16 kts | 78° |
| 2026-04-28 19:51 | 53.12961 | 9.35499 | 105 ft | 12 kts | 24° |
| 2026-04-28 19:51 | 53.13053 | 9.35564 | 105 ft | 14 kts | 1° |
| 2026-04-28 19:52 | 53.13058 | 9.35383 | 105 ft | 19 kts | 260° |
| 2026-04-28 19:52 | 53.13030 | 9.35141 | 105 ft | 15 kts | 259° |
| 2026-04-28 19:52 | 53.12995 | 9.35087 | 105 ft | 0 kts | 269° |